Mc Coy, Colorado
Current Conditions -  °F | °C
As of 7:55 PM on Thursday 27 Nov 2014 (Local Time) from K20V Reporting Station
Clear Clear  
Wind Chill: 36°   Ceiling: Unl
Heat Index: 36°   Visibility: 10mi
Dew Point: 23°   Wind: 3mph
Humidity: 60%   Direction: 360°N
Pressure: 30.33"   Gusts: NA
Location:  39.9149°N, 106.722°W
Report Text: K20V 280255Z AUTO 36003KT 10SM CLR 02/M05 A3033 RMK AO2
Loading
Personal Weather Stations






























Interactive Weather Map New forecast layout! Learn more

10-Day Weather Forecast

Advertisements
Track Severe Weather on mobile